sensor_id;sensor_type;location;lat;lon;timestamp;pressure;altitude;pressure_sealevel;temperature;humidity
6393;BME280;3229;42.674;23.282;2022-08-24T00:01:53;94425.81;;;20.72;99.48
6393;BME280;3229;42.674;23.282;2022-08-24T00:04:22;94397.13;;;20.47;100.00
6393;BME280;3229;42.674;23.282;2022-08-24T00:06:49;94433.03;;;20.70;99.98
6393;BME280;3229;42.674;23.282;2022-08-24T00:09:16;94431.25;;;20.71;99.85
6393;BME280;3229;42.674;23.282;2022-08-24T00:11:44;94433.22;;;20.75;99.76
6393;BME280;3229;42.674;23.282;2022-08-24T00:14:12;94428.25;;;20.67;99.90
6393;BME280;3229;42.674;23.282;2022-08-24T00:16:40;94428.69;;;20.58;100.00
6393;BME280;3229;42.674;23.282;2022-08-24T00:19:07;94427.91;;;20.57;100.00
6393;BME280;3229;42.674;23.282;2022-08-24T00:21:36;94449.09;;;20.61;100.00
6393;BME280;3229;42.674;23.282;2022-08-24T00:24:04;94454.09;;;20.56;100.00
6393;BME280;3229;42.674;23.282;2022-08-24T00:26:31;94454.09;;;20.56;100.00
6393;BME280;3229;42.674;23.282;2022-08-24T00:28:58;94443.28;;;20.45;100.00
6393;BME280;3229;42.674;23.282;2022-08-24T00:31:25;94461.28;;;20.53;100.00
6393;BME280;3229;42.674;23.282;2022-08-24T00:33:52;94455.91;;;20.48;100.00
6393;BME280;3229;42.674;23.282;2022-08-24T00:36:19;94464.69;;;20.54;100.00
6393;BME280;3229;42.674;23.282;2022-08-24T00:38:48;94469.69;;;20.56;100.00
6393;BME280;3229;42.674;23.282;2022-08-24T00:41:15;94460.50;;;20.53;100.00
6393;BME280;3229;42.674;23.282;2022-08-24T00:43:50;94460.50;;;20.53;100.00
6393;BME280;3229;42.674;23.282;2022-08-24T00:46:22;94462.91;;;20.48;100.00
6393;BME280;3229;42.674;23.282;2022-08-24T00:48:57;94467.72;;;20.51;100.00
6393;BME280;3229;42.674;23.282;2022-08-24T00:51:29;94456.31;;;20.52;100.00
6393;BME280;3229;42.674;23.282;2022-08-24T00:54:01;94465.13;;;20.51;100.00
6393;BME280;3229;42.674;23.282;2022-08-24T00:56:33;94471.28;;;20.50;100.00
6393;BME280;3229;42.674;23.282;2022-08-24T00:59:03;94466.47;;;20.53;100.00
6393;BME280;3229;42.674;23.282;2022-08-24T01:01:32;94467.09;;;20.56;100.00
6393;BME280;3229;42.674;23.282;2022-08-24T01:04:01;94474.06;;;20.55;100.00
6393;BME280;3229;42.674;23.282;2022-08-24T01:06:30;94479.88;;;20.57;100.00
6393;BME280;3229;42.674;23.282;2022-08-24T01:08:59;94480.66;;;20.58;100.00
6393;BME280;3229;42.674;23.282;2022-08-24T01:11:28;94474.88;;;20.56;100.00
6393;BME280;3229;42.674;23.282;2022-08-24T01:13:58;94479.06;;;20.57;100.00
6393;BME280;3229;42.674;23.282;2022-08-24T01:16:26;94472.47;;;20.61;100.00
6393;BME280;3229;42.674;23.282;2022-08-24T01:19:19;94484.47;;;20.55;100.00
6393;BME280;3229;42.674;23.282;2022-08-24T01:21:56;94487.47;;;20.52;100.00
6393;BME280;3229;42.674;23.282;2022-08-24T01:24:28;94491.28;;;20.49;100.00
6393;BME280;3229;42.674;23.282;2022-08-24T01:26:55;94496.69;;;20.48;100.00
6393;BME280;3229;42.674;23.282;2022-08-24T01:29:26;94496.28;;;20.51;100.00
6393;BME280;3229;42.674;23.282;2022-08-24T01:31:56;94487.28;;;20.47;100.00
6393;BME280;3229;42.674;23.282;2022-08-24T01:34:23;94500.06;;;20.48;100.00
6393;BME280;3229;42.674;23.282;2022-08-24T01:36:52;94503.47;;;20.49;100.00
6393;BME280;3229;42.674;23.282;2022-08-24T01:39:24;94495.47;;;20.50;100.00
6393;BME280;3229;42.674;23.282;2022-08-24T01:41:54;94509.47;;;20.49;100.00
6393;BME280;3229;42.674;23.282;2022-08-24T01:44:23;94508.66;;;20.49;100.00
6393;BME280;3229;42.674;23.282;2022-08-24T01:46:52;94505.84;;;20.50;100.00
6393;BME280;3229;42.674;23.282;2022-08-24T01:49:23;94484.09;;;20.38;100.00
6393;BME280;3229;42.674;23.282;2022-08-24T01:51:50;94499.69;;;20.51;100.00
6393;BME280;3229;42.674;23.282;2022-08-24T01:54:17;94485.28;;;20.42;100.00
6393;BME280;3229;42.674;23.282;2022-08-24T01:56:44;94463.31;;;20.32;100.00
6393;BME280;3229;42.674;23.282;2022-08-24T01:59:12;94492.47;;;20.47;100.00
6393;BME280;3229;42.674;23.282;2022-08-24T02:01:42;94497.66;;;20.47;100.00
6393;BME280;3229;42.674;23.282;2022-08-24T02:04:10;94493.06;;;20.49;100.00
6393;BME280;3229;42.674;23.282;2022-08-24T02:06:37;94506.25;;;20.47;100.00
6393;BME280;3229;42.674;23.282;2022-08-24T02:09:05;94510.06;;;20.51;100.00
6393;BME280;3229;42.674;23.282;2022-08-24T02:11:32;94489.28;;;20.32;100.00
6393;BME280;3229;42.674;23.282;2022-08-24T02:13:59;94505.47;;;20.47;100.00
6393;BME280;3229;42.674;23.282;2022-08-24T02:16:28;94485.91;;;20.31;100.00
6393;BME280;3229;42.674;23.282;2022-08-24T02:18:55;94503.88;;;20.39;100.00
6393;BME280;3229;42.674;23.282;2022-08-24T02:21:22;94523.25;;;20.50;100.00
6393;BME280;3229;42.674;23.282;2022-08-24T02:23:49;94529.22;;;20.50;100.00
6393;BME280;3229;42.674;23.282;2022-08-24T02:26:17;94532.66;;;20.51;100.00
6393;BME280;3229;42.674;23.282;2022-08-24T02:28:44;94533.63;;;20.50;100.00
6393;BME280;3229;42.674;23.282;2022-08-24T02:31:12;94529.63;;;20.47;100.00
6393;BME280;3229;42.674;23.282;2022-08-24T02:33:41;94502.66;;;20.28;100.00
6393;BME280;3229;42.674;23.282;2022-08-24T02:36:10;94536.00;;;20.45;100.00
6393;BME280;3229;42.674;23.282;2022-08-24T02:38:37;94532.84;;;20.43;100.00
6393;BME280;3229;42.674;23.282;2022-08-24T02:41:04;94531.63;;;20.39;100.00
6393;BME280;3229;42.674;23.282;2022-08-24T02:43:32;94539.63;;;20.44;100.00
6393;BME280;3229;42.674;23.282;2022-08-24T02:45:59;94523.22;;;20.37;100.00
6393;BME280;3229;42.674;23.282;2022-08-24T02:48:26;94519.25;;;20.34;100.00
6393;BME280;3229;42.674;23.282;2022-08-24T02:50:54;94537.59;;;20.46;100.00
6393;BME280;3229;42.674;23.282;2022-08-24T02:53:21;94531.22;;;20.42;100.00
6393;BME280;3229;42.674;23.282;2022-08-24T02:55:49;94540.03;;;20.47;100.00
6393;BME280;3229;42.674;23.282;2022-08-24T02:58:16;94531.63;;;20.45;100.00
6393;BME280;3229;42.674;23.282;2022-08-24T03:00:45;94543.22;;;20.49;100.00
6393;BME280;3229;42.674;23.282;2022-08-24T03:03:12;94533.81;;;20.42;100.00
6393;BME280;3229;42.674;23.282;2022-08-24T03:05:39;94546.63;;;20.50;100.00
6393;BME280;3229;42.674;23.282;2022-08-24T03:08:08;94540.84;;;20.48;100.00
6393;BME280;3229;42.674;23.282;2022-08-24T03:10:35;94538.25;;;20.48;100.00
6393;BME280;3229;42.674;23.282;2022-08-24T03:13:01;94542.44;;;20.49;100.00
6393;BME280;3229;42.674;23.282;2022-08-24T03:15:29;94536.41;;;20.42;100.00
6393;BME280;3229;42.674;23.282;2022-08-24T03:17:56;94538.63;;;20.45;100.00
6393;BME280;3229;42.674;23.282;2022-08-24T03:20:23;94500.28;;;20.20;100.00
6393;BME280;3229;42.674;23.282;2022-08-24T03:22:50;94544.03;;;20.50;100.00
6393;BME280;3229;42.674;23.282;2022-08-24T03:25:20;94544.03;;;20.50;100.00
6393;BME280;3229;42.674;23.282;2022-08-24T03:27:49;94522.25;;;20.31;100.00
6393;BME280;3229;42.674;23.282;2022-08-24T03:30:17;94542.44;;;20.42;100.00
6393;BME280;3229;42.674;23.282;2022-08-24T03:32:45;94530.03;;;20.38;100.00
6393;BME280;3229;42.674;23.282;2022-08-24T03:35:13;94552.41;;;20.45;100.00
6393;BME280;3229;42.674;23.282;2022-08-24T03:37:40;94552.81;;;20.42;100.00
6393;BME280;3229;42.674;23.282;2022-08-24T03:40:09;94557.81;;;20.37;100.00
6393;BME280;3229;42.674;23.282;2022-08-24T03:42:38;94552.81;;;20.36;100.00
6393;BME280;3229;42.674;23.282;2022-08-24T03:45:06;94549.63;;;20.34;100.00
6393;BME280;3229;42.674;23.282;2022-08-24T03:47:34;94540.84;;;20.21;100.00
6393;BME280;3229;42.674;23.282;2022-08-24T03:50:01;94556.22;;;20.23;100.00
6393;BME280;3229;42.674;23.282;2022-08-24T03:52:28;94562.41;;;20.22;100.00
6393;BME280;3229;42.674;23.282;2022-08-24T03:54:55;94552.81;;;20.22;100.00
6393;BME280;3229;42.674;23.282;2022-08-24T03:57:21;94560.00;;;20.20;100.00
6393;BME280;3229;42.674;23.282;2022-08-24T03:59:50;94560.59;;;20.16;100.00
6393;BME280;3229;42.674;23.282;2022-08-24T04:02:17;94554.63;;;20.15;100.00
6393;BME280;3229;42.674;23.282;2022-08-24T04:04:44;94553.59;;;20.16;100.00
6393;BME280;3229;42.674;23.282;2022-08-24T04:07:11;94551.84;;;20.17;100.00
6393;BME280;3229;42.674;23.282;2022-08-24T04:09:38;94538.03;;;20.03;100.00
6393;BME280;3229;42.674;23.282;2022-08-24T04:12:05;94553.81;;;20.15;100.00
6393;BME280;3229;42.674;23.282;2022-08-24T04:14:32;94552.63;;;20.17;100.00
6393;BME280;3229;42.674;23.282;2022-08-24T04:17:01;94556.81;;;20.18;100.00
6393;BME280;3229;42.674;23.282;2022-08-24T04:19:29;94556.81;;;20.18;100.00
6393;BME280;3229;42.674;23.282;2022-08-24T04:21:56;94556.81;;;20.18;100.00
6393;BME280;3229;42.674;23.282;2022-08-24T04:24:23;94561.00;;;20.19;100.00
6393;BME280;3229;42.674;23.282;2022-08-24T04:26:51;94564.59;;;20.25;100.00
6393;BME280;3229;42.674;23.282;2022-08-24T04:29:18;94562.59;;;20.27;100.00
6393;BME280;3229;42.674;23.282;2022-08-24T04:31:46;94553.03;;;20.27;100.00
6393;BME280;3229;42.674;23.282;2022-08-24T04:34:15;94562.81;;;20.32;100.00
6393;BME280;3229;42.674;23.282;2022-08-24T04:36:44;94567.81;;;20.34;100.00
6393;BME280;3229;42.674;23.282;2022-08-24T04:39:11;94568.41;;;20.36;100.00
6393;BME280;3229;42.674;23.282;2022-08-24T04:41:38;94573.19;;;20.39;100.00
6393;BME280;3229;42.674;23.282;2022-08-24T04:44:06;94573.19;;;20.45;100.00
6393;BME280;3229;42.674;23.282;2022-08-24T04:46:33;94569.56;;;20.46;100.00
6393;BME280;3229;42.674;23.282;2022-08-24T04:49:00;94572.22;;;20.53;100.00
6393;BME280;3229;42.674;23.282;2022-08-24T04:51:28;94570.59;;;20.59;100.00
6393;BME280;3229;42.674;23.282;2022-08-24T04:53:55;94565.00;;;20.62;100.00
6393;BME280;3229;42.674;23.282;2022-08-24T04:56:23;94557.78;;;20.70;100.00
6393;BME280;3229;42.674;23.282;2022-08-24T04:58:50;94561.97;;;20.78;100.00
6393;BME280;3229;42.674;23.282;2022-08-24T05:01:20;94557.75;;;20.84;100.00
6393;BME280;3229;42.674;23.282;2022-08-24T05:03:49;94537.34;;;20.80;100.00
6393;BME280;3229;42.674;23.282;2022-08-24T05:06:18;94561.53;;;20.94;100.00
6393;BME280;3229;42.674;23.282;2022-08-24T05:08:47;94538.38;;;20.86;100.00
6393;BME280;3229;42.674;23.282;2022-08-24T05:11:15;94537.94;;;20.96;100.00
6393;BME280;3229;42.674;23.282;2022-08-24T05:13:43;94544.50;;;21.05;100.00
6393;BME280;3229;42.674;23.282;2022-08-24T05:16:12;94559.00;;;21.26;100.00
6393;BME280;3229;42.674;23.282;2022-08-24T05:18:40;94557.84;;;21.15;97.76
6393;BME280;3229;42.674;23.282;2022-08-24T05:21:08;94564.19;;;21.33;97.53
6393;BME280;3229;42.674;23.282;2022-08-24T05:23:36;94555.19;;;21.35;97.42
6393;BME280;3229;42.674;23.282;2022-08-24T05:26:06;94561.34;;;21.47;98.74
6393;BME280;3229;42.674;23.282;2022-08-24T05:28:33;94562.13;;;21.54;98.65
6393;BME280;3229;42.674;23.282;2022-08-24T05:31:08;94549.28;;;21.53;98.30
6393;BME280;3229;42.674;23.282;2022-08-24T05:33:35;94544.25;;;21.58;97.92
6393;BME280;3229;42.674;23.282;2022-08-24T05:36:03;94552.19;;;21.76;97.93
6393;BME280;3229;42.674;23.282;2022-08-24T05:38:31;94544.38;;;21.76;98.35
6393;BME280;3229;42.674;23.282;2022-08-24T05:41:03;94550.03;;;21.98;96.34
6393;BME280;3229;42.674;23.282;2022-08-24T05:43:31;94548.91;;;22.19;92.55
6393;BME280;3229;42.674;23.282;2022-08-24T05:45:58;94557.91;;;22.42;90.62
6393;BME280;3229;42.674;23.282;2022-08-24T05:48:25;94555.75;;;22.57;89.54
6393;BME280;3229;42.674;23.282;2022-08-24T05:50:53;94550.41;;;22.70;85.33
6393;BME280;3229;42.674;23.282;2022-08-24T05:53:21;94556.50;;;22.83;82.06
6393;BME280;3229;42.674;23.282;2022-08-24T05:55:48;94554.84;;;22.88;83.83
6393;BME280;3229;42.674;23.282;2022-08-24T05:58:15;94552.78;;;22.97;81.91
6393;BME280;3229;42.674;23.282;2022-08-24T06:00:43;94551.91;;;23.03;83.54
6393;BME280;3229;42.674;23.282;2022-08-24T06:03:11;94556.38;;;23.14;83.45
6393;BME280;3229;42.674;23.282;2022-08-24T06:05:40;94540.47;;;23.04;84.34
6393;BME280;3229;42.674;23.282;2022-08-24T06:08:07;94557.13;;;23.21;83.43
6393;BME280;3229;42.674;23.282;2022-08-24T06:10:41;94556.38;;;23.33;80.04
6393;BME280;3229;42.674;23.282;2022-08-24T06:13:09;94562.31;;;23.40;81.32
6393;BME280;3229;42.674;23.282;2022-08-24T06:15:37;94553.25;;;23.42;81.95
6393;BME280;3229;42.674;23.282;2022-08-24T06:18:06;94554.09;;;23.54;82.50
6393;BME280;3229;42.674;23.282;2022-08-24T06:20:37;94556.41;;;23.63;82.83
6393;BME280;3229;42.674;23.282;2022-08-24T06:23:05;94561.19;;;23.66;82.86
6393;BME280;3229;42.674;23.282;2022-08-24T06:25:31;94560.31;;;23.72;79.48
6393;BME280;3229;42.674;23.282;2022-08-24T06:28:16;94555.22;;;23.77;78.13
6393;BME280;3229;42.674;23.282;2022-08-24T06:30:43;94524.00;;;23.52;79.32
6393;BME280;3229;42.674;23.282;2022-08-24T06:33:11;94564.06;;;23.76;79.49
6393;BME280;3229;42.674;23.282;2022-08-24T06:35:38;94554.91;;;23.85;78.96
6393;BME280;3229;42.674;23.282;2022-08-24T06:38:05;94548.09;;;23.96;79.77
6393;BME280;3229;42.674;23.282;2022-08-24T06:40:32;94555.41;;;24.06;78.20
6393;BME280;3229;42.674;23.282;2022-08-24T06:43:00;94557.03;;;24.18;77.33
6393;BME280;3229;42.674;23.282;2022-08-24T06:45:28;94559.88;;;24.28;77.75
6393;BME280;3229;42.674;23.282;2022-08-24T06:47:55;94562.50;;;24.52;75.75
6393;BME280;3229;42.674;23.282;2022-08-24T06:50:24;94559.31;;;24.73;76.04
6393;BME280;3229;42.674;23.282;2022-08-24T06:52:51;94563.41;;;24.93;76.99
6393;BME280;3229;42.674;23.282;2022-08-24T06:55:18;94573.38;;;25.08;76.32
6393;BME280;3229;42.674;23.282;2022-08-24T06:57:45;94565.78;;;25.18;73.31
6393;BME280;3229;42.674;23.282;2022-08-24T07:00:13;94572.34;;;25.32;72.63
6393;BME280;3229;42.674;23.282;2022-08-24T07:02:40;94576.53;;;25.45;74.13
6393;BME280;3229;42.674;23.282;2022-08-24T07:05:07;94570.13;;;25.52;73.26
6393;BME280;3229;42.674;23.282;2022-08-24T07:07:35;94573.63;;;25.58;72.61
6393;BME280;3229;42.674;23.282;2022-08-24T07:10:04;94589.63;;;25.73;72.74
6393;BME280;3229;42.674;23.282;2022-08-24T07:12:33;94578.69;;;25.76;71.26
6393;BME280;3229;42.674;23.282;2022-08-24T07:15:00;94585.25;;;25.91;71.85
6393;BME280;3229;42.674;23.282;2022-08-24T07:17:26;94591.03;;;25.93;68.01
6393;BME280;3229;42.674;23.282;2022-08-24T07:19:54;94589.22;;;25.65;68.34
6393;BME280;3229;42.674;23.282;2022-08-24T07:22:21;94590.88;;;25.71;68.33
6393;BME280;3229;42.674;23.282;2022-08-24T07:24:49;94599.75;;;25.82;69.54
6393;BME280;3229;42.674;23.282;2022-08-24T07:27:16;94595.88;;;25.72;68.10
6393;BME280;3229;42.674;23.282;2022-08-24T07:29:43;94602.47;;;25.87;66.88
6393;BME280;3229;42.674;23.282;2022-08-24T07:32:10;94610.09;;;25.88;66.32
6393;BME280;3229;42.674;23.282;2022-08-24T07:34:37;94601.78;;;25.91;66.56
6393;BME280;3229;42.674;23.282;2022-08-24T07:37:04;94589.22;;;25.93;66.41
6393;BME280;3229;42.674;23.282;2022-08-24T07:39:32;94598.56;;;25.89;66.33
6393;BME280;3229;42.674;23.282;2022-08-24T07:42:00;94591.50;;;25.90;66.08
6393;BME280;3229;42.674;23.282;2022-08-24T07:44:27;94583.09;;;25.88;66.06
6393;BME280;3229;42.674;23.282;2022-08-24T07:46:55;94589.59;;;25.85;67.29
6393;BME280;3229;42.674;23.282;2022-08-24T07:49:22;94594.28;;;25.83;68.85
6393;BME280;3229;42.674;23.282;2022-08-24T07:51:49;94592.72;;;25.82;67.71
6393;BME280;3229;42.674;23.282;2022-08-24T07:54:18;94590.25;;;25.92;67.57
6393;BME280;3229;42.674;23.282;2022-08-24T07:56:45;94592.50;;;26.00;68.08
6393;BME280;3229;42.674;23.282;2022-08-24T07:59:13;94588.69;;;26.08;67.38
6393;BME280;3229;42.674;23.282;2022-08-24T08:01:40;94583.59;;;26.01;65.06
6393;BME280;3229;42.674;23.282;2022-08-24T08:04:07;94586.38;;;26.12;65.38
6393;BME280;3229;42.674;23.282;2022-08-24T08:06:35;94580.75;;;26.20;64.78
6393;BME280;3229;42.674;23.282;2022-08-24T08:09:02;94576.63;;;26.24;65.48
6393;BME280;3229;42.674;23.282;2022-08-24T08:11:29;94582.34;;;26.21;65.18
6393;BME280;3229;42.674;23.282;2022-08-24T08:13:56;94573.75;;;26.09;65.92
6393;BME280;3229;42.674;23.282;2022-08-24T08:16:25;94546.16;;;25.89;65.31
6393;BME280;3229;42.674;23.282;2022-08-24T08:18:52;94580.25;;;26.06;66.67
6393;BME280;3229;42.674;23.282;2022-08-24T08:21:19;94555.22;;;25.98;66.35
6393;BME280;3229;42.674;23.282;2022-08-24T08:24:04;94553.66;;;26.14;66.97
6393;BME280;3229;42.674;23.282;2022-08-24T08:26:45;94564.22;;;26.19;66.30
6393;BME280;3229;42.674;23.282;2022-08-24T08:29:13;94566.38;;;26.22;66.07
6393;BME280;3229;42.674;23.282;2022-08-24T08:31:41;94566.22;;;26.29;67.45
6393;BME280;3229;42.674;23.282;2022-08-24T08:34:09;94569.00;;;26.22;64.99
6393;BME280;3229;42.674;23.282;2022-08-24T08:36:37;94575.28;;;26.21;65.74
6393;BME280;3229;42.674;23.282;2022-08-24T08:39:05;94568.75;;;26.24;65.71
6393;BME280;3229;42.674;23.282;2022-08-24T08:41:58;94570.72;;;26.34;65.21
6393;BME280;3229;42.674;23.282;2022-08-24T08:44:40;94562.41;;;26.37;65.23
6393;BME280;3229;42.674;23.282;2022-08-24T08:47:20;94569.31;;;26.43;65.30
6393;BME280;3229;42.674;23.282;2022-08-24T08:50:01;94566.22;;;26.46;65.59
6393;BME280;3229;42.674;23.282;2022-08-24T08:55:32;94565.09;;;26.42;64.03
6393;BME280;3229;42.674;23.282;2022-08-24T08:58:17;94566.38;;;26.39;65.40
6393;BME280;3229;42.674;23.282;2022-08-24T09:00:55;94550.56;;;26.34;64.31
6393;BME280;3229;42.674;23.282;2022-08-24T09:03:51;94576.09;;;26.56;63.47
6393;BME280;3229;42.674;23.282;2022-08-24T09:06:43;94572.19;;;26.58;63.10
6393;BME280;3229;42.674;23.282;2022-08-24T09:09:22;94579.03;;;26.59;64.22
6393;BME280;3229;42.674;23.282;2022-08-24T09:12:01;94575.78;;;26.69;64.13
6393;BME280;3229;42.674;23.282;2022-08-24T09:14:50;94570.13;;;26.77;62.80
6393;BME280;3229;42.674;23.282;2022-08-24T09:17:35;94573.53;;;26.77;63.14
6393;BME280;3229;42.674;23.282;2022-08-24T09:20:18;94579.94;;;26.87;62.24
6393;BME280;3229;42.674;23.282;2022-08-24T09:22:46;94580.75;;;26.87;60.60
6393;BME280;3229;42.674;23.282;2022-08-24T09:28:12;94568.00;;;26.96;60.32
6393;BME280;3229;42.674;23.282;2022-08-24T09:33:36;94573.72;;;27.10;59.17
6393;BME280;3229;42.674;23.282;2022-08-24T09:36:12;94558.75;;;27.10;60.19
6393;BME280;3229;42.674;23.282;2022-08-24T09:39:04;94552.81;;;27.20;60.36
6393;BME280;3229;42.674;23.282;2022-08-24T09:41:53;94548.44;;;27.25;60.37
6393;BME280;3229;42.674;23.282;2022-08-24T09:48:15;94549.69;;;27.45;59.68
6393;BME280;3229;42.674;23.282;2022-08-24T09:54:24;94543.53;;;27.56;58.31
6393;BME280;3229;42.674;23.282;2022-08-24T09:57:11;94519.31;;;27.54;56.83
6393;BME280;3229;42.674;23.282;2022-08-24T10:00:04;94528.91;;;27.65;57.21
6393;BME280;3229;42.674;23.282;2022-08-24T10:02:48;94519.13;;;27.61;57.48
6393;BME280;3229;42.674;23.282;2022-08-24T10:05:30;94513.97;;;27.71;57.26
6393;BME280;3229;42.674;23.282;2022-08-24T10:08:11;94514.22;;;27.69;58.00
6393;BME280;3229;42.674;23.282;2022-08-24T10:10:50;94514.75;;;27.71;57.66
6393;BME280;3229;42.674;23.282;2022-08-24T10:13:34;94508.03;;;27.81;55.76
6393;BME280;3229;42.674;23.282;2022-08-24T10:16:22;94489.00;;;27.68;56.85
6393;BME280;3229;42.674;23.282;2022-08-24T10:18:59;94501.19;;;27.80;57.82
6393;BME280;3229;42.674;23.282;2022-08-24T10:21:42;94488.63;;;27.82;57.13
6393;BME280;3229;42.674;23.282;2022-08-24T10:24:22;94492.84;;;27.88;56.79
6393;BME280;3229;42.674;23.282;2022-08-24T10:27:18;94489.44;;;27.87;56.63
6393;BME280;3229;42.674;23.282;2022-08-24T10:30:03;94510.44;;;27.82;55.00
6393;BME280;3229;42.674;23.282;2022-08-24T10:32:48;94506.00;;;27.88;54.19
6393;BME280;3229;42.674;23.282;2022-08-24T10:35:21;94496.53;;;27.87;55.43
6393;BME280;3229;42.674;23.282;2022-08-24T10:38:21;94494.97;;;27.86;55.58
6393;BME280;3229;42.674;23.282;2022-08-24T10:44:25;94502.09;;;27.90;55.63
6393;BME280;3229;42.674;23.282;2022-08-24T10:47:00;94496.88;;;27.95;55.52
6393;BME280;3229;42.674;23.282;2022-08-24T10:49:51;94497.16;;;27.99;55.53
6393;BME280;3229;42.674;23.282;2022-08-24T10:52:46;94499.03;;;28.04;55.56
6393;BME280;3229;42.674;23.282;2022-08-24T10:55:20;94496.41;;;28.04;55.27
6393;BME280;3229;42.674;23.282;2022-08-24T11:00:50;94498.28;;;28.08;56.13
6393;BME280;3229;42.674;23.282;2022-08-24T11:03:18;94477.44;;;28.01;55.35
6393;BME280;3229;42.674;23.282;2022-08-24T11:05:49;94496.97;;;28.11;55.07
6393;BME280;3229;42.674;23.282;2022-08-24T11:08:21;94491.50;;;28.17;54.61
6393;BME280;3229;42.674;23.282;2022-08-24T11:11:04;94491.53;;;28.22;53.01
6393;BME280;3229;42.674;23.282;2022-08-24T11:13:33;94487.34;;;28.21;53.84
6393;BME280;3229;42.674;23.282;2022-08-24T11:16:04;94472.50;;;28.05;54.50
6393;BME280;3229;42.674;23.282;2022-08-24T11:18:46;94492.47;;;28.06;55.24
6393;BME280;3229;42.674;23.282;2022-08-24T11:21:30;94479.16;;;28.18;54.47
6393;BME280;3229;42.674;23.282;2022-08-24T11:24:01;94478.38;;;28.17;55.25
6393;BME280;3229;42.674;23.282;2022-08-24T11:26:28;94473.94;;;28.23;57.30
6393;BME280;3229;42.674;23.282;2022-08-24T11:28:58;94470.97;;;28.14;58.35
6393;BME280;3229;42.674;23.282;2022-08-24T11:31:31;94477.25;;;28.08;58.02
6393;BME280;3229;42.674;23.282;2022-08-24T11:34:02;94457.50;;;28.06;58.06
6393;BME280;3229;42.674;23.282;2022-08-24T11:36:34;94466.75;;;28.08;58.64
6393;BME280;3229;42.674;23.282;2022-08-24T11:39:16;94468.41;;;27.87;58.90
6393;BME280;3229;42.674;23.282;2022-08-24T11:41:55;94473.47;;;27.94;58.52
6393;BME280;3229;42.674;23.282;2022-08-24T11:44:42;94470.75;;;27.84;59.49
6393;BME280;3229;42.674;23.282;2022-08-24T11:50:32;94460.03;;;27.90;59.78
6393;BME280;3229;42.674;23.282;2022-08-24T11:56:04;94462.34;;;27.82;59.69
6393;BME280;3229;42.674;23.282;2022-08-24T11:58:42;94461.56;;;27.86;59.36
6393;BME280;3229;42.674;23.282;2022-08-24T12:01:16;94465.03;;;27.92;59.72
6393;BME280;3229;42.674;23.282;2022-08-24T12:03:54;94459.47;;;27.88;59.81
6393;BME280;3229;42.674;23.282;2022-08-24T12:06:35;94455.47;;;27.81;59.98
6393;BME280;3229;42.674;23.282;2022-08-24T12:09:11;94458.34;;;27.79;60.30
6393;BME280;3229;42.674;23.282;2022-08-24T12:11:53;94464.00;;;27.66;60.46
6393;BME280;3229;42.674;23.282;2022-08-24T12:14:25;94466.50;;;27.50;61.04
6393;BME280;3229;42.674;23.282;2022-08-24T12:17:00;94463.81;;;27.45;61.15
6393;BME280;3229;42.674;23.282;2022-08-24T12:19:30;94458.91;;;27.54;60.79
6393;BME280;3229;42.674;23.282;2022-08-24T12:22:01;94457.75;;;27.45;60.82
6393;BME280;3229;42.674;23.282;2022-08-24T12:24:31;94463.19;;;27.33;61.44
6393;BME280;3229;42.674;23.282;2022-08-24T12:27:02;94445.72;;;27.49;60.78
6393;BME280;3229;42.674;23.282;2022-08-24T12:29:34;94448.31;;;27.44;60.69
6393;BME280;3229;42.674;23.282;2022-08-24T12:32:06;94441.84;;;27.57;60.31
6393;BME280;3229;42.674;23.282;2022-08-24T12:34:44;94444.47;;;27.57;60.35
6393;BME280;3229;42.674;23.282;2022-08-24T12:37:18;94442.97;;;27.66;59.62
6393;BME280;3229;42.674;23.282;2022-08-24T12:39:54;94427.09;;;27.50;60.56
6393;BME280;3229;42.674;23.282;2022-08-24T12:42:30;94447.28;;;27.50;61.21
6393;BME280;3229;42.674;23.282;2022-08-24T12:45:02;94441.91;;;27.35;61.63
6393;BME280;3229;42.674;23.282;2022-08-24T12:47:34;94446.00;;;27.20;62.17
6393;BME280;3229;42.674;23.282;2022-08-24T12:50:06;94458.19;;;27.10;62.26
6393;BME280;3229;42.674;23.282;2022-08-24T12:56:30;94458.25;;;27.15;62.47
6393;BME280;3229;42.674;23.282;2022-08-24T12:59:07;94449.09;;;27.17;61.76
6393;BME280;3229;42.674;23.282;2022-08-24T13:01:41;94448.72;;;27.09;62.27
6393;BME280;3229;42.674;23.282;2022-08-24T13:04:15;94450.06;;;26.89;62.78
6393;BME280;3229;42.674;23.282;2022-08-24T13:06:48;94446.78;;;26.99;62.79
6393;BME280;3229;42.674;23.282;2022-08-24T13:09:26;94439.06;;;26.92;62.97
6393;BME280;3229;42.674;23.282;2022-08-24T13:11:56;94457.19;;;26.94;63.32
6393;BME280;3229;42.674;23.282;2022-08-24T13:14:25;94462.28;;;27.00;62.47
6393;BME280;3229;42.674;23.282;2022-08-24T13:17:11;94470.75;;;27.08;62.46
6393;BME280;3229;42.674;23.282;2022-08-24T13:19:41;94467.53;;;27.00;62.39
6393;BME280;3229;42.674;23.282;2022-08-24T13:22:37;94487.00;;;27.05;62.56
6393;BME280;3229;42.674;23.282;2022-08-24T13:25:21;94485.91;;;27.00;62.82
6393;BME280;3229;42.674;23.282;2022-08-24T13:28:31;94497.00;;;27.08;63.15
6393;BME280;3229;42.674;23.282;2022-08-24T13:31:10;94481.81;;;26.88;62.79
6393;BME280;3229;42.674;23.282;2022-08-24T13:33:41;94490.22;;;26.90;62.99
6393;BME280;3229;42.674;23.282;2022-08-24T13:39:22;94488.03;;;26.82;63.67
6393;BME280;3229;42.674;23.282;2022-08-24T13:42:10;94503.06;;;26.86;64.56
6393;BME280;3229;42.674;23.282;2022-08-24T13:45:16;94486.41;;;26.59;65.07
6393;BME280;3229;42.674;23.282;2022-08-24T13:47:50;94488.47;;;26.73;64.93
6393;BME280;3229;42.674;23.282;2022-08-24T13:50:31;94484.84;;;26.80;64.77
6393;BME280;3229;42.674;23.282;2022-08-24T13:53:12;94489.66;;;26.66;65.18
6393;BME280;3229;42.674;23.282;2022-08-24T13:55:51;94484.00;;;26.74;64.71
6393;BME280;3229;42.674;23.282;2022-08-24T13:58:33;94458.06;;;26.56;64.67
6393;BME280;3229;42.674;23.282;2022-08-24T14:01:20;94466.91;;;26.71;64.30
6393;BME280;3229;42.674;23.282;2022-08-24T14:04:15;94465.69;;;26.57;64.87
6393;BME280;3229;42.674;23.282;2022-08-24T14:06:52;94456.41;;;26.49;65.50
6393;BME280;3229;42.674;23.282;2022-08-24T14:09:32;94457.75;;;26.52;66.01